createdAt,value
2023-02-17T00:01:14.237Z,95.53
2023-02-17T00:03:42.373Z,90.07
2023-02-17T00:06:12.111Z,87.90
2023-02-17T00:08:40.074Z,91.70
2023-02-17T00:11:09.680Z,85.60
2023-02-17T00:13:37.679Z,93.43
2023-02-17T00:16:08.865Z,89.20
2023-02-17T00:18:37.417Z,86.63
2023-02-17T00:21:16.469Z,89.37
2023-02-17T00:23:44.835Z,79.93
2023-02-17T00:26:14.914Z,78.03
2023-02-17T00:28:44.373Z,82.37
2023-02-17T00:31:15.725Z,79.40
2023-02-17T00:33:43.820Z,75.43
2023-02-17T00:36:14.223Z,74.67
2023-02-17T00:38:42.250Z,71.57
2023-02-17T00:41:10.386Z,73.53
2023-02-17T00:43:39.827Z,71.80
2023-02-17T00:46:08.428Z,70.37
2023-02-17T00:48:36.790Z,67.70
2023-02-17T00:51:06.269Z,66.37
2023-02-17T00:53:36.424Z,59.83
2023-02-17T00:56:05.590Z,62.57
2023-02-17T00:58:34.030Z,63.30
2023-02-17T01:01:04.184Z,59.63
2023-02-17T01:03:32.769Z,63.43
2023-02-17T01:06:01.121Z,53.67
2023-02-17T01:08:29.430Z,57.53
2023-02-17T01:10:58.498Z,56.13
2023-02-17T01:13:26.560Z,51.27
2023-02-17T01:15:56.513Z,56.40
2023-02-17T01:18:26.002Z,55.07
2023-02-17T01:20:54.318Z,55.03
2023-02-17T01:23:22.579Z,57.33
2023-02-17T01:25:51.594Z,53.17
2023-02-17T01:28:23.083Z,52.30
2023-02-17T01:30:51.160Z,50.77
2023-02-17T01:33:19.167Z,51.90
2023-02-17T01:35:48.550Z,49.63
2023-02-17T01:38:16.584Z,49.50
2023-02-17T01:40:48.737Z,48.83
2023-02-17T01:43:18.225Z,51.13
2023-02-17T01:45:49.860Z,47.23
2023-02-17T01:48:22.779Z,44.23
2023-02-17T01:50:56.500Z,46.80
2023-02-17T01:53:30.667Z,41.87
2023-02-17T01:55:59.095Z,42.40
2023-02-17T01:58:29.292Z,42.07
2023-02-17T02:00:59.256Z,40.17
2023-02-17T02:03:28.221Z,39.13
2023-02-17T02:05:58.159Z,37.10
2023-02-17T02:08:31.736Z,35.33
2023-02-17T02:10:59.744Z,39.20
2023-02-17T02:13:28.420Z,33.37
2023-02-17T02:16:08.129Z,32.70
2023-02-17T02:18:50.656Z,33.67
2023-02-17T02:21:54.825Z,31.93
2023-02-17T02:24:29.480Z,29.17
2023-02-17T02:27:34.050Z,32.03
2023-02-17T02:30:19.190Z,30.07
2023-02-17T02:33:02.769Z,29.80
2023-02-17T02:35:43.561Z,27.60
2023-02-17T02:38:16.171Z,28.70
2023-02-17T02:40:48.208Z,27.90
2023-02-17T02:43:16.946Z,27.10
2023-02-17T02:45:45.062Z,27.43
2023-02-17T02:48:14.535Z,27.83
2023-02-17T02:50:56.630Z,26.33
2023-02-17T02:53:49.935Z,24.70
2023-02-17T02:56:28.354Z,25.10
2023-02-17T02:59:06.960Z,26.00
2023-02-17T03:01:42.372Z,24.83
2023-02-17T03:04:16.200Z,24.00
2023-02-17T03:06:49.140Z,23.27
2023-02-17T03:09:22.488Z,22.87
2023-02-17T03:11:50.775Z,23.00
2023-02-17T03:14:21.442Z,23.00
2023-02-17T03:16:50.715Z,23.43
2023-02-17T03:19:24.105Z,23.47
2023-02-17T03:21:58.086Z,23.10
2023-02-17T03:24:26.250Z,22.07
2023-02-17T03:26:54.294Z,22.40
2023-02-17T03:29:22.312Z,23.80
2023-02-17T03:31:50.422Z,23.30
2023-02-17T03:34:19.885Z,23.87
2023-02-17T03:36:48.686Z,22.70
2023-02-17T03:39:16.854Z,23.07
2023-02-17T03:41:44.878Z,22.93
2023-02-17T03:44:12.952Z,22.23
2023-02-17T03:46:41.176Z,20.67
2023-02-17T03:49:09.238Z,20.07
2023-02-17T03:51:38.615Z,21.83
2023-02-17T03:54:06.710Z,20.83
2023-02-17T03:56:34.737Z,20.10
2023-02-17T03:59:02.771Z,21.37
2023-02-17T04:01:31.211Z,20.63
2023-02-17T04:03:59.255Z,19.80
2023-02-17T04:06:27.294Z,21.10
2023-02-17T04:08:56.639Z,22.70
2023-02-17T04:11:24.664Z,22.57
2023-02-17T04:13:52.688Z,21.73
2023-02-17T04:16:20.881Z,23.23
2023-02-17T04:18:48.889Z,23.03
2023-02-17T04:21:16.972Z,22.20
2023-02-17T04:23:46.049Z,23.83
2023-02-17T04:26:15.395Z,24.20
2023-02-17T04:28:44.941Z,24.80
2023-02-17T04:31:13.116Z,23.20
2023-02-17T04:33:41.234Z,23.77
2023-02-17T04:36:09.562Z,24.93
2023-02-17T04:38:37.564Z,24.07
2023-02-17T04:41:06.218Z,24.00
2023-02-17T04:43:35.588Z,26.30
2023-02-17T04:46:03.849Z,26.17
2023-02-17T04:48:32.148Z,28.87
2023-02-17T04:51:00.173Z,27.20
2023-02-17T04:53:28.704Z,26.17
2023-02-17T04:55:56.713Z,28.93
2023-02-17T04:58:24.757Z,27.70
2023-02-17T05:00:54.105Z,28.23
2023-02-17T05:03:22.148Z,30.57
2023-02-17T05:05:51.206Z,29.80
2023-02-17T05:08:19.229Z,29.57
2023-02-17T05:10:47.227Z,32.73
2023-02-17T05:13:15.203Z,30.70
2023-02-17T05:15:44.525Z,30.90
2023-02-17T05:18:14.479Z,33.43
2023-02-17T05:20:42.826Z,33.23
2023-02-17T05:23:10.929Z,33.90
2023-02-17T05:25:40.827Z,33.43
2023-02-17T05:28:08.918Z,33.67
2023-02-17T05:30:36.941Z,33.53
2023-02-17T05:33:05.068Z,34.43
2023-02-17T05:35:35.423Z,34.40
2023-02-17T05:38:03.472Z,37.87
2023-02-17T05:40:31.526Z,37.90
2023-02-17T05:42:59.602Z,36.97
2023-02-17T05:45:27.578Z,33.67
2023-02-17T05:47:55.584Z,37.77
2023-02-17T05:50:23.622Z,35.80
2023-02-17T05:52:53.099Z,36.90
2023-02-17T05:55:22.167Z,35.90
2023-02-17T05:57:50.202Z,39.57
2023-02-17T06:00:18.708Z,41.70
2023-02-17T06:02:46.758Z,39.03
2023-02-17T06:05:15.105Z,44.00
2023-02-17T06:07:43.419Z,42.23
2023-02-17T06:10:13.104Z,39.60
2023-02-17T06:12:41.510Z,40.07
2023-02-17T06:15:09.863Z,40.23
2023-02-17T06:17:37.909Z,42.10
2023-02-17T06:20:07.346Z,43.73
2023-02-17T06:22:35.697Z,39.63
2023-02-17T06:25:03.703Z,41.80
2023-02-17T06:27:33.107Z,40.63
2023-02-17T06:30:01.211Z,41.30
2023-02-17T06:32:29.444Z,42.57
2023-02-17T06:34:57.501Z,42.60
2023-02-17T06:37:25.496Z,43.30
2023-02-17T06:39:53.478Z,42.33
2023-02-17T06:42:21.588Z,39.67
2023-02-17T06:44:50.963Z,39.93
2023-02-17T06:47:19.009Z,41.50
2023-02-17T06:49:47.004Z,42.57
2023-02-17T06:52:15.048Z,41.00
2023-02-17T06:54:43.429Z,41.90
2023-02-17T06:57:11.453Z,40.23
2023-02-17T06:59:39.518Z,42.00
2023-02-17T07:02:12.317Z,43.60
2023-02-17T07:04:40.454Z,40.27
2023-02-17T07:07:09.121Z,43.77
2023-02-17T07:09:38.532Z,41.60
2023-02-17T07:12:07.415Z,43.37
2023-02-17T07:14:36.542Z,44.73
2023-02-17T07:17:04.621Z,40.70
2023-02-17T07:19:34.015Z,39.40
2023-02-17T07:22:02.475Z,44.00
2023-02-17T07:24:30.454Z,43.23
2023-02-17T07:26:58.467Z,45.67
2023-02-17T07:29:26.472Z,42.73
2023-02-17T07:31:54.524Z,45.27
2023-02-17T07:34:22.608Z,39.33
2023-02-17T07:36:51.962Z,36.97
2023-02-17T07:39:19.992Z,37.00
2023-02-17T07:41:48.030Z,37.03
2023-02-17T07:44:19.417Z,33.73
2023-02-17T07:46:47.458Z,33.20
2023-02-17T07:49:15.437Z,33.70
2023-02-17T07:51:43.442Z,36.37
2023-02-17T07:54:13.328Z,36.20
2023-02-17T07:56:44.898Z,35.23
2023-02-17T07:59:13.961Z,33.67
2023-02-17T08:01:42.476Z,31.97
2023-02-17T08:04:10.555Z,29.37
2023-02-17T08:06:40.902Z,27.40
2023-02-17T08:09:28.169Z,28.80
2023-02-17T08:12:14.912Z,29.73
2023-02-17T08:14:42.970Z,25.60
2023-02-17T08:17:11.034Z,29.53
2023-02-17T08:19:48.141Z,26.00
2023-02-17T08:22:17.271Z,26.40
2023-02-17T08:24:45.602Z,25.90
2023-02-17T08:27:15.961Z,27.03
2023-02-17T08:29:44.361Z,26.30
2023-02-17T08:32:12.746Z,26.07
2023-02-17T08:34:40.838Z,25.10
2023-02-17T08:37:09.979Z,25.93
2023-02-17T08:39:38.655Z,25.13
2023-02-17T08:42:07.150Z,28.27
2023-02-17T08:44:37.694Z,24.83
2023-02-17T08:47:06.917Z,26.70
2023-02-17T08:49:35.815Z,25.57
2023-02-17T08:52:04.181Z,27.03
2023-02-17T08:54:32.384Z,24.23
2023-02-17T08:57:00.564Z,25.53
2023-02-17T08:59:28.592Z,24.90
2023-02-17T09:01:58.426Z,23.73
2023-02-17T09:04:26.554Z,24.23
2023-02-17T09:06:56.594Z,25.37
2023-02-17T09:09:27.700Z,23.90
2023-02-17T09:11:57.298Z,22.73
2023-02-17T09:14:25.712Z,26.00
2023-02-17T09:16:55.143Z,25.40
2023-02-17T09:19:24.700Z,26.30
2023-02-17T09:21:52.814Z,23.00
2023-02-17T09:24:20.833Z,26.10
2023-02-17T09:26:48.893Z,26.77
2023-02-17T09:29:16.948Z,26.77
2023-02-17T09:31:46.054Z,25.40
2023-02-17T09:34:15.166Z,24.67
2023-02-17T09:36:44.658Z,25.50
2023-02-17T09:39:14.131Z,27.13
2023-02-17T09:41:47.182Z,24.17
2023-02-17T09:44:21.683Z,25.87
2023-02-17T09:47:02.166Z,27.63
2023-02-17T09:49:37.964Z,28.63
2023-02-17T09:52:14.203Z,28.60
2023-02-17T09:54:50.647Z,26.33
2023-02-17T09:57:22.644Z,30.30
2023-02-17T09:59:56.192Z,29.73
2023-02-17T10:02:31.423Z,30.23
2023-02-17T10:05:04.006Z,34.43
2023-02-17T10:07:37.875Z,34.27
2023-02-17T10:10:09.790Z,35.70
2023-02-17T10:12:41.286Z,33.27
2023-02-17T10:15:16.076Z,35.77
2023-02-17T10:17:50.051Z,36.43
2023-02-17T10:20:21.536Z,39.57
2023-02-17T10:22:54.647Z,35.63
2023-02-17T10:25:34.710Z,38.33
2023-02-17T10:28:09.842Z,38.87
2023-02-17T10:30:45.882Z,39.53
2023-02-17T10:33:22.541Z,38.80
2023-02-17T10:35:52.779Z,39.57
2023-02-17T10:38:39.295Z,35.87
2023-02-17T10:41:11.856Z,38.10
2023-02-17T10:43:39.892Z,39.53
2023-02-17T10:46:09.204Z,39.27
2023-02-17T10:48:41.727Z,34.90
2023-02-17T10:51:15.689Z,34.83
2023-02-17T10:53:49.111Z,37.43
2023-02-17T10:56:21.957Z,35.93
2023-02-17T10:58:56.192Z,39.70
2023-02-17T11:01:24.279Z,39.77
2023-02-17T11:04:01.986Z,37.20
2023-02-17T11:06:31.429Z,41.40
2023-02-17T11:09:04.229Z,41.43
2023-02-17T11:11:35.598Z,39.23
2023-02-17T11:14:12.427Z,41.17
2023-02-17T11:16:43.137Z,41.83
2023-02-17T11:19:23.280Z,39.60
2023-02-17T11:21:52.819Z,42.47
2023-02-17T11:24:22.260Z,41.57
2023-02-17T11:26:58.268Z,42.17
2023-02-17T11:29:27.126Z,39.33
2023-02-17T11:31:56.872Z,43.87
2023-02-17T11:34:28.284Z,42.77
2023-02-17T11:37:02.353Z,41.90
2023-02-17T11:39:31.758Z,41.67
2023-02-17T11:41:59.780Z,38.17
2023-02-17T11:44:29.278Z,36.90
2023-02-17T11:47:06.961Z,36.33
2023-02-17T11:49:55.409Z,31.10
2023-02-17T11:52:39.524Z,31.50
2023-02-17T11:55:19.898Z,32.90
2023-02-17T11:58:06.829Z,34.47
2023-02-17T12:00:42.761Z,31.43
2023-02-17T12:03:29.809Z,31.43
2023-02-17T12:06:07.923Z,29.43
2023-02-17T12:08:48.511Z,25.37
2023-02-17T12:11:27.499Z,27.57
2023-02-17T12:14:10.866Z,28.87
2023-02-17T12:16:46.856Z,22.73
2023-02-17T12:19:46.280Z,24.03
2023-02-17T12:22:19.040Z,27.20
2023-02-17T12:25:03.988Z,23.60
2023-02-17T12:27:50.720Z,20.37
2023-02-17T12:30:33.582Z,23.37
2023-02-17T12:33:26.122Z,20.70
2023-02-17T12:35:57.612Z,16.53
2023-02-17T12:38:30.587Z,19.47
2023-02-17T12:41:06.595Z,18.17
2023-02-17T12:43:39.948Z,18.80
2023-02-17T12:46:12.936Z,18.30
2023-02-17T12:48:48.657Z,18.20
2023-02-17T12:51:23.452Z,15.83
2023-02-17T12:53:57.327Z,16.00
2023-02-17T12:56:51.511Z,17.10
2023-02-17T12:59:24.236Z,17.27
2023-02-17T13:01:57.404Z,16.30
2023-02-17T13:04:27.155Z,18.43
2023-02-17T13:07:03.739Z,19.00
2023-02-17T13:09:36.445Z,19.13
2023-02-17T13:12:40.495Z,15.73
2023-02-17T13:15:29.672Z,22.00
2023-02-17T13:18:01.272Z,16.90
2023-02-17T13:20:45.909Z,13.90
2023-02-17T13:23:26.841Z,20.03
2023-02-17T13:26:30.261Z,17.70
2023-02-17T13:29:35.626Z,16.67
2023-02-17T13:32:06.974Z,13.97
2023-02-17T13:34:37.897Z,17.17
2023-02-17T13:37:19.429Z,17.30
2023-02-17T13:39:47.714Z,16.33
2023-02-17T13:42:37.973Z,15.17
2023-02-17T13:45:21.106Z,13.20
2023-02-17T13:47:52.729Z,14.13
2023-02-17T13:50:31.690Z,15.50
2023-02-17T13:53:00.593Z,15.57
2023-02-17T13:55:28.934Z,14.20
2023-02-17T13:57:58.764Z,12.17
2023-02-17T14:00:29.412Z,12.13
2023-02-17T14:03:02.899Z,12.30
2023-02-17T14:05:41.868Z,12.90
2023-02-17T14:08:15.537Z,12.30
2023-02-17T14:10:43.819Z,10.73
2023-02-17T14:13:12.955Z,10.97
2023-02-17T14:15:52.381Z,12.33
2023-02-17T14:18:31.611Z,12.63
2023-02-17T14:21:06.352Z,10.07
2023-02-17T14:23:45.707Z,9.20
2023-02-17T14:26:16.484Z,13.47
2023-02-17T14:28:55.094Z,5.93
2023-02-17T14:31:24.892Z,11.77
2023-02-17T14:33:59.888Z,10.73
2023-02-17T14:36:31.369Z,13.87
2023-02-17T14:39:00.220Z,9.97
2023-02-17T14:41:29.032Z,15.33
2023-02-17T14:43:57.310Z,12.43
2023-02-17T14:46:25.642Z,10.20
2023-02-17T14:48:54.368Z,9.00
2023-02-17T14:51:26.212Z,10.83
2023-02-17T14:53:54.291Z,13.23
2023-02-17T14:56:26.299Z,11.33
2023-02-17T14:58:54.521Z,12.97
2023-02-17T15:01:24.900Z,11.73
2023-02-17T15:03:54.356Z,14.10
2023-02-17T15:06:30.051Z,13.23
2023-02-17T15:08:59.580Z,16.77
2023-02-17T15:11:31.446Z,14.10
2023-02-17T15:13:59.472Z,11.90
2023-02-17T15:16:27.836Z,13.90
2023-02-17T15:18:55.972Z,17.97
2023-02-17T15:21:29.060Z,17.83
2023-02-17T15:23:58.219Z,18.87
2023-02-17T15:26:26.722Z,17.37
2023-02-17T15:28:57.083Z,16.87
2023-02-17T15:31:25.658Z,18.10
2023-02-17T15:33:58.008Z,19.70
2023-02-17T15:36:28.935Z,21.60
2023-02-17T15:38:56.952Z,20.83
2023-02-17T15:41:26.918Z,21.43
2023-02-17T15:43:57.200Z,19.43
2023-02-17T15:46:33.058Z,23.83
2023-02-17T15:49:01.339Z,18.77
2023-02-17T15:51:30.716Z,20.97
2023-02-17T15:53:58.984Z,21.43
2023-02-17T15:56:32.324Z,13.73
2023-02-17T15:59:04.293Z,18.03
2023-02-17T16:01:34.556Z,23.23
2023-02-17T16:04:03.029Z,20.37
2023-02-17T16:06:32.352Z,20.60
2023-02-17T16:09:00.340Z,20.80
2023-02-17T16:11:29.180Z,21.27
2023-02-17T16:13:57.828Z,20.40
2023-02-17T16:16:32.271Z,17.23
2023-02-17T16:19:00.809Z,22.30
2023-02-17T16:21:29.205Z,22.33
2023-02-17T16:24:00.340Z,21.37
2023-02-17T16:26:33.528Z,14.60
2023-02-17T16:29:03.248Z,20.33
2023-02-17T16:31:35.752Z,18.30
2023-02-17T16:34:03.960Z,14.20
2023-02-17T16:36:35.830Z,21.97
2023-02-17T16:39:12.914Z,21.20
2023-02-17T16:41:41.175Z,20.13
2023-02-17T16:44:09.416Z,23.30
2023-02-17T16:46:38.469Z,15.87
2023-02-17T16:49:24.174Z,15.77
2023-02-17T16:51:52.599Z,20.60
2023-02-17T16:54:22.065Z,22.37
2023-02-17T16:56:52.562Z,18.93
2023-02-17T16:59:22.512Z,20.53
2023-02-17T17:01:51.007Z,20.67
2023-02-17T17:04:19.060Z,15.87
2023-02-17T17:06:49.407Z,23.50
2023-02-17T17:09:18.839Z,20.23
2023-02-17T17:11:48.470Z,23.50
2023-02-17T17:14:16.683Z,16.50
2023-02-17T17:16:49.989Z,22.33
2023-02-17T17:19:18.218Z,21.50
2023-02-17T17:21:46.280Z,14.17
2023-02-17T17:24:14.291Z,19.93
2023-02-17T17:26:45.135Z,16.97
2023-02-17T17:29:17.039Z,22.77
2023-02-17T17:31:45.334Z,23.73
2023-02-17T17:34:13.467Z,23.37
2023-02-17T17:36:43.649Z,16.60
2023-02-17T17:39:16.153Z,19.57
2023-02-17T17:41:44.362Z,19.80
2023-02-17T17:44:14.101Z,24.63
2023-02-17T17:46:42.303Z,22.27
2023-02-17T17:49:13.141Z,22.73
2023-02-17T17:51:41.415Z,23.40
2023-02-17T17:54:09.679Z,19.77
2023-02-17T17:56:39.169Z,20.30
2023-02-17T17:59:07.613Z,19.03
2023-02-17T18:01:37.199Z,24.93
2023-02-17T18:04:05.401Z,20.03
2023-02-17T18:06:38.511Z,22.13
2023-02-17T18:09:10.872Z,17.03
2023-02-17T18:11:40.684Z,19.73
2023-02-17T18:14:13.868Z,22.10
2023-02-17T18:16:45.232Z,28.03
2023-02-17T18:19:14.242Z,22.60
2023-02-17T18:21:42.463Z,18.23
2023-02-17T18:24:11.032Z,21.77
2023-02-17T18:26:39.169Z,16.87
2023-02-17T18:29:07.188Z,19.27
2023-02-17T18:31:35.304Z,23.37
2023-02-17T18:34:05.136Z,20.17
2023-02-17T18:36:33.232Z,22.97
2023-02-17T18:39:01.233Z,21.47
2023-02-17T18:41:30.768Z,24.03
2023-02-17T18:44:01.291Z,18.27
2023-02-17T18:46:29.585Z,15.97
2023-02-17T18:48:58.093Z,17.47
2023-02-17T18:51:27.709Z,22.80
2023-02-17T18:53:56.501Z,17.13
2023-02-17T18:56:26.904Z,17.77
2023-02-17T18:58:56.152Z,23.83
2023-02-17T19:01:26.161Z,20.33
2023-02-17T19:03:54.230Z,20.10
2023-02-17T19:06:24.740Z,22.83
2023-02-17T19:08:54.698Z,20.83
2023-02-17T19:11:24.155Z,19.27
2023-02-17T19:13:53.131Z,20.20
2023-02-17T19:16:24.275Z,22.20
2023-02-17T19:18:52.865Z,23.63
2023-02-17T19:21:22.125Z,28.00
2023-02-17T19:23:50.209Z,25.63
2023-02-17T19:26:20.449Z,23.53
2023-02-17T19:28:49.025Z,22.60
2023-02-17T19:31:19.157Z,21.63
2023-02-17T19:33:47.854Z,24.57
2023-02-17T19:36:18.442Z,25.30
2023-02-17T19:38:47.101Z,23.90
2023-02-17T19:41:15.638Z,20.93
2023-02-17T19:43:45.735Z,20.37
2023-02-17T19:46:14.710Z,22.17
2023-02-17T19:48:43.157Z,21.40
2023-02-17T19:51:13.677Z,22.40
2023-02-17T19:53:42.936Z,25.50
2023-02-17T19:56:12.756Z,23.13
2023-02-17T19:58:41.679Z,25.80
2023-02-17T20:01:13.370Z,23.07
2023-02-17T20:03:41.571Z,24.23
2023-02-17T20:06:11.882Z,21.37
2023-02-17T20:08:40.488Z,21.53
2023-02-17T20:11:10.128Z,22.00
2023-02-17T20:13:45.722Z,25.77
2023-02-17T20:16:17.288Z,23.97
2023-02-17T20:18:47.429Z,26.80
2023-02-17T20:21:17.814Z,24.73
2023-02-17T20:23:45.989Z,22.30
2023-02-17T20:26:16.225Z,24.13
2023-02-17T20:28:44.430Z,30.40
2023-02-17T20:31:15.353Z,24.03
2023-02-17T20:33:43.475Z,17.53
2023-02-17T20:36:11.885Z,24.03
2023-02-17T20:38:40.240Z,24.27
2023-02-17T20:41:10.476Z,25.40
2023-02-17T20:43:38.969Z,20.83
2023-02-17T20:46:07.904Z,24.07
2023-02-17T20:48:37.435Z,22.27
2023-02-17T20:51:05.753Z,20.67
2023-02-17T20:53:33.882Z,18.37
2023-02-17T20:56:02.074Z,22.07
2023-02-17T20:58:30.130Z,23.30
2023-02-17T21:00:58.173Z,23.73
2023-02-17T21:03:26.212Z,20.17
2023-02-17T21:05:55.628Z,18.77
2023-02-17T21:08:23.636Z,21.77
2023-02-17T21:10:51.635Z,26.90
2023-02-17T21:13:19.727Z,17.90
2023-02-17T21:15:48.069Z,22.00
2023-02-17T21:18:16.639Z,23.40
2023-02-17T21:20:44.674Z,18.67
2023-02-17T21:23:14.062Z,27.00
2023-02-17T21:25:42.104Z,24.17
2023-02-17T21:28:10.073Z,18.47
2023-02-17T21:30:38.093Z,21.37
2023-02-17T21:33:06.151Z,23.30
2023-02-17T21:35:34.131Z,22.07
2023-02-17T21:38:02.180Z,21.97
2023-02-17T21:40:31.828Z,21.80
2023-02-17T21:43:17.242Z,18.70
2023-02-17T21:45:45.703Z,16.77
2023-02-17T21:48:13.919Z,22.73
2023-02-17T21:50:41.923Z,20.37
2023-02-17T21:53:09.957Z,16.40
2023-02-17T21:55:39.307Z,20.67
2023-02-17T21:58:07.315Z,21.37
2023-02-17T22:00:35.424Z,23.40
2023-02-17T22:03:03.483Z,27.17
2023-02-17T22:05:31.705Z,21.00
2023-02-17T22:07:59.695Z,19.20
2023-02-17T22:10:27.747Z,19.47
2023-02-17T22:12:57.109Z,16.60
2023-02-17T22:15:25.099Z,22.30
2023-02-17T22:17:53.088Z,17.20
2023-02-17T22:20:21.274Z,17.13
2023-02-17T22:22:49.357Z,25.00
2023-02-17T22:25:17.666Z,18.80
2023-02-17T22:27:45.712Z,16.80
2023-02-17T22:30:15.497Z,21.40
2023-02-17T22:32:43.871Z,20.83
2023-02-17T22:35:12.391Z,19.60
2023-02-17T22:37:40.492Z,23.73
2023-02-17T22:40:09.779Z,19.23
2023-02-17T22:42:37.772Z,25.03
2023-02-17T22:45:07.153Z,28.03
2023-02-17T22:47:36.624Z,23.43
2023-02-17T22:50:05.414Z,22.83
2023-02-17T22:52:33.608Z,20.83
2023-02-17T22:55:01.781Z,16.53
2023-02-17T22:57:29.745Z,20.00
2023-02-17T22:59:57.756Z,18.30
2023-02-17T23:02:25.789Z,20.80
2023-02-17T23:04:55.140Z,19.47
2023-02-17T23:07:23.567Z,22.73
2023-02-17T23:09:51.712Z,27.60
2023-02-17T23:12:20.132Z,22.87
2023-02-17T23:14:48.125Z,21.10
2023-02-17T23:17:16.471Z,19.23
2023-02-17T23:19:44.504Z,21.37
2023-02-17T23:22:16.615Z,24.53
2023-02-17T23:24:45.088Z,20.77
2023-02-17T23:27:13.628Z,23.67
2023-02-17T23:29:42.876Z,24.57
2023-02-17T23:32:11.107Z,19.53
2023-02-17T23:34:40.262Z,19.13
2023-02-17T23:37:08.300Z,18.00
2023-02-17T23:39:39.184Z,23.87
2023-02-17T23:42:07.493Z,18.03
2023-02-17T23:44:35.518Z,13.43
2023-02-17T23:47:04.262Z,16.90
2023-02-17T23:49:32.267Z,19.63
2023-02-17T23:52:00.620Z,16.90
2023-02-17T23:54:28.819Z,20.40
2023-02-17T23:56:58.172Z,15.30
2023-02-17T23:59:26.191Z,15.50
